Yaphank, New York
Current Conditions -  °F | °C
As of 1:56 AM on Friday 26 Dec 2014 (Local Time) from KHWV Reporting Station
Clear Clear  
Wind Chill: 38°   Ceiling: Unl
Heat Index: 41°   Visibility: 10mi
Dew Point: 30°   Wind: 5mph
Humidity: 65%   Direction: 230°SW
Pressure: 30.12"   Gusts: NA
Location:  40.83°N, 72.93°W
Report Text: KHWV 260656Z AUTO 23004KT 10SM CLR 05/M01 A3012 RMK AO2 SLP201 T00501011 TSNO
Loading
Personal Weather Stations






























Interactive Weather Map New forecast layout! Learn more

10-Day Weather Forecast

Advertisements
Track Severe Weather on mobile